sensor_id;sensor_type;location;lat;lon;timestamp;P1;durP1;ratioP1;P2;durP2;ratioP2
46318;SDS011;32042;50.916;2.926;2024-01-30T00:00:17;8.77;;;7.80;;
46318;SDS011;32042;50.916;2.926;2024-01-30T00:02:43;7.87;;;7.17;;
46318;SDS011;32042;50.916;2.926;2024-01-30T00:05:10;11.33;;;8.43;;
46318;SDS011;32042;50.916;2.926;2024-01-30T00:07:37;9.40;;;7.23;;
46318;SDS011;32042;50.916;2.926;2024-01-30T00:10:03;9.70;;;7.70;;
46318;SDS011;32042;50.916;2.926;2024-01-30T00:12:31;9.43;;;8.13;;
46318;SDS011;32042;50.916;2.926;2024-01-30T00:14:57;8.47;;;7.60;;
46318;SDS011;32042;50.916;2.926;2024-01-30T00:17:23;8.70;;;7.57;;
46318;SDS011;32042;50.916;2.926;2024-01-30T00:19:51;11.03;;;7.30;;
46318;SDS011;32042;50.916;2.926;2024-01-30T00:22:17;8.87;;;8.00;;
46318;SDS011;32042;50.916;2.926;2024-01-30T00:24:43;9.97;;;8.03;;
46318;SDS011;32042;50.916;2.926;2024-01-30T00:27:09;9.50;;;8.23;;
46318;SDS011;32042;50.916;2.926;2024-01-30T00:29:35;9.93;;;8.43;;
46318;SDS011;32042;50.916;2.926;2024-01-30T00:32:01;7.67;;;7.00;;
46318;SDS011;32042;50.916;2.926;2024-01-30T00:34:28;14.30;;;8.33;;
46318;SDS011;32042;50.916;2.926;2024-01-30T00:36:54;9.00;;;8.10;;
46318;SDS011;32042;50.916;2.926;2024-01-30T00:39:20;11.83;;;8.80;;
46318;SDS011;32042;50.916;2.926;2024-01-30T00:41:46;11.20;;;10.10;;
46318;SDS011;32042;50.916;2.926;2024-01-30T00:44:12;11.20;;;9.53;;
46318;SDS011;32042;50.916;2.926;2024-01-30T00:46:38;10.03;;;9.03;;
46318;SDS011;32042;50.916;2.926;2024-01-30T00:49:04;9.87;;;8.87;;
46318;SDS011;32042;50.916;2.926;2024-01-30T00:51:30;9.90;;;8.90;;
46318;SDS011;32042;50.916;2.926;2024-01-30T00:53:56;10.80;;;9.00;;
46318;SDS011;32042;50.916;2.926;2024-01-30T00:56:22;9.60;;;8.70;;
46318;SDS011;32042;50.916;2.926;2024-01-30T00:58:49;12.03;;;10.73;;
46318;SDS011;32042;50.916;2.926;2024-01-30T01:01:15;9.00;;;8.23;;
46318;SDS011;32042;50.916;2.926;2024-01-30T01:03:41;8.93;;;8.17;;
46318;SDS011;32042;50.916;2.926;2024-01-30T01:06:09;11.37;;;9.70;;
46318;SDS011;32042;50.916;2.926;2024-01-30T01:08:35;9.07;;;7.80;;
46318;SDS011;32042;50.916;2.926;2024-01-30T01:11:02;9.60;;;7.87;;
46318;SDS011;32042;50.916;2.926;2024-01-30T01:13:28;8.97;;;7.83;;
46318;SDS011;32042;50.916;2.926;2024-01-30T01:15:54;9.23;;;8.33;;
46318;SDS011;32042;50.916;2.926;2024-01-30T01:18:20;8.70;;;7.87;;
46318;SDS011;32042;50.916;2.926;2024-01-30T01:20:46;9.80;;;7.87;;
46318;SDS011;32042;50.916;2.926;2024-01-30T01:23:12;7.53;;;6.80;;
46318;SDS011;32042;50.916;2.926;2024-01-30T01:25:39;8.73;;;7.47;;
46318;SDS011;32042;50.916;2.926;2024-01-30T01:28:05;7.43;;;6.73;;
46318;SDS011;32042;50.916;2.926;2024-01-30T01:30:31;8.40;;;7.17;;
46318;SDS011;32042;50.916;2.926;2024-01-30T01:32:57;8.50;;;6.30;;
46318;SDS011;32042;50.916;2.926;2024-01-30T01:35:26;6.80;;;6.20;;
46318;SDS011;32042;50.916;2.926;2024-01-30T01:37:53;11.33;;;7.57;;
46318;SDS011;32042;50.916;2.926;2024-01-30T01:40:24;10.20;;;7.00;;
46318;SDS011;32042;50.916;2.926;2024-01-30T01:42:50;9.63;;;7.50;;
46318;SDS011;32042;50.916;2.926;2024-01-30T01:45:20;12.00;;;6.83;;
46318;SDS011;32042;50.916;2.926;2024-01-30T01:47:52;7.70;;;7.00;;
46318;SDS011;32042;50.916;2.926;2024-01-30T01:50:19;9.50;;;7.27;;
46318;SDS011;32042;50.916;2.926;2024-01-30T01:52:49;12.57;;;7.07;;
46318;SDS011;32042;50.916;2.926;2024-01-30T01:55:15;9.27;;;7.13;;
46318;SDS011;32042;50.916;2.926;2024-01-30T01:57:47;7.47;;;6.80;;
46318;SDS011;32042;50.916;2.926;2024-01-30T02:00:13;8.33;;;6.97;;
46318;SDS011;32042;50.916;2.926;2024-01-30T02:02:40;9.07;;;7.60;;
46318;SDS011;32042;50.916;2.926;2024-01-30T02:05:07;7.90;;;7.10;;
46318;SDS011;32042;50.916;2.926;2024-01-30T02:07:34;9.20;;;7.30;;
46318;SDS011;32042;50.916;2.926;2024-01-30T02:10:00;8.23;;;7.00;;
46318;SDS011;32042;50.916;2.926;2024-01-30T02:12:26;7.97;;;7.27;;
46318;SDS011;32042;50.916;2.926;2024-01-30T02:14:52;8.67;;;7.50;;
46318;SDS011;32042;50.916;2.926;2024-01-30T02:17:19;7.30;;;6.63;;
46318;SDS011;32042;50.916;2.926;2024-01-30T02:19:46;8.20;;;7.40;;
46318;SDS011;32042;50.916;2.926;2024-01-30T02:22:12;10.30;;;7.60;;
46318;SDS011;32042;50.916;2.926;2024-01-30T02:24:38;9.73;;;7.77;;
46318;SDS011;32042;50.916;2.926;2024-01-30T02:27:04;8.57;;;7.07;;
46318;SDS011;32042;50.916;2.926;2024-01-30T02:29:30;8.37;;;7.57;;
46318;SDS011;32042;50.916;2.926;2024-01-30T02:31:56;8.90;;;7.53;;
46318;SDS011;32042;50.916;2.926;2024-01-30T02:34:23;9.33;;;8.43;;
46318;SDS011;32042;50.916;2.926;2024-01-30T02:36:49;8.90;;;7.70;;
46318;SDS011;32042;50.916;2.926;2024-01-30T02:39:15;8.43;;;6.97;;
46318;SDS011;32042;50.916;2.926;2024-01-30T02:41:41;9.07;;;7.83;;
46318;SDS011;32042;50.916;2.926;2024-01-30T02:44:07;9.50;;;8.53;;
46318;SDS011;32042;50.916;2.926;2024-01-30T02:46:33;8.33;;;7.57;;
46318;SDS011;32042;50.916;2.926;2024-01-30T02:48:59;9.50;;;8.00;;
46318;SDS011;32042;50.916;2.926;2024-01-30T02:51:25;8.57;;;7.60;;
46318;SDS011;32042;50.916;2.926;2024-01-30T02:53:51;8.40;;;7.43;;
46318;SDS011;32042;50.916;2.926;2024-01-30T02:56:17;8.03;;;7.20;;
46318;SDS011;32042;50.916;2.926;2024-01-30T02:58:43;9.77;;;8.07;;
46318;SDS011;32042;50.916;2.926;2024-01-30T03:01:09;7.67;;;6.87;;
46318;SDS011;32042;50.916;2.926;2024-01-30T03:03:36;10.20;;;7.10;;
46318;SDS011;32042;50.916;2.926;2024-01-30T03:06:02;9.00;;;7.60;;
46318;SDS011;32042;50.916;2.926;2024-01-30T03:08:30;8.73;;;7.83;;
46318;SDS011;32042;50.916;2.926;2024-01-30T03:10:56;7.80;;;7.07;;
46318;SDS011;32042;50.916;2.926;2024-01-30T03:13:22;7.63;;;6.90;;
46318;SDS011;32042;50.916;2.926;2024-01-30T03:15:50;8.33;;;7.53;;
46318;SDS011;32042;50.916;2.926;2024-01-30T03:18:16;9.43;;;7.10;;
46318;SDS011;32042;50.916;2.926;2024-01-30T03:20:42;10.80;;;7.93;;
46318;SDS011;32042;50.916;2.926;2024-01-30T03:23:08;8.20;;;7.40;;
46318;SDS011;32042;50.916;2.926;2024-01-30T03:25:34;11.20;;;8.13;;
46318;SDS011;32042;50.916;2.926;2024-01-30T03:28:00;9.47;;;8.10;;
46318;SDS011;32042;50.916;2.926;2024-01-30T03:30:26;9.63;;;8.53;;
46318;SDS011;32042;50.916;2.926;2024-01-30T03:32:52;9.10;;;8.20;;
46318;SDS011;32042;50.916;2.926;2024-01-30T03:35:18;10.40;;;8.57;;
46318;SDS011;32042;50.916;2.926;2024-01-30T03:37:44;10.80;;;8.03;;
46318;SDS011;32042;50.916;2.926;2024-01-30T03:40:11;9.23;;;8.33;;
46318;SDS011;32042;50.916;2.926;2024-01-30T03:42:37;9.00;;;8.10;;
46318;SDS011;32042;50.916;2.926;2024-01-30T03:45:03;10.97;;;8.33;;
46318;SDS011;32042;50.916;2.926;2024-01-30T03:47:29;9.87;;;7.77;;
46318;SDS011;32042;50.916;2.926;2024-01-30T03:49:55;10.30;;;8.60;;
46318;SDS011;32042;50.916;2.926;2024-01-30T03:52:21;11.37;;;8.37;;
46318;SDS011;32042;50.916;2.926;2024-01-30T03:54:47;11.20;;;8.57;;
46318;SDS011;32042;50.916;2.926;2024-01-30T03:57:13;10.23;;;8.27;;
46318;SDS011;32042;50.916;2.926;2024-01-30T03:59:41;8.73;;;7.80;;
46318;SDS011;32042;50.916;2.926;2024-01-30T04:02:07;10.17;;;8.33;;
46318;SDS011;32042;50.916;2.926;2024-01-30T04:04:33;9.17;;;7.80;;
46318;SDS011;32042;50.916;2.926;2024-01-30T04:07:00;9.13;;;8.23;;
46318;SDS011;32042;50.916;2.926;2024-01-30T04:09:27;9.37;;;7.80;;
46318;SDS011;32042;50.916;2.926;2024-01-30T04:11:53;9.93;;;8.10;;
46318;SDS011;32042;50.916;2.926;2024-01-30T04:14:19;10.63;;;8.27;;
46318;SDS011;32042;50.916;2.926;2024-01-30T04:16:45;11.30;;;8.43;;
46318;SDS011;32042;50.916;2.926;2024-01-30T04:19:12;8.13;;;7.40;;
46318;SDS011;32042;50.916;2.926;2024-01-30T04:21:38;11.10;;;8.53;;
46318;SDS011;32042;50.916;2.926;2024-01-30T04:24:04;13.67;;;8.40;;
46318;SDS011;32042;50.916;2.926;2024-01-30T04:26:30;11.93;;;8.17;;
46318;SDS011;32042;50.916;2.926;2024-01-30T04:28:56;9.73;;;8.50;;
46318;SDS011;32042;50.916;2.926;2024-01-30T04:31:22;9.57;;;7.77;;
46318;SDS011;32042;50.916;2.926;2024-01-30T04:33:48;12.57;;;7.37;;
46318;SDS011;32042;50.916;2.926;2024-01-30T04:36:14;10.23;;;7.60;;
46318;SDS011;32042;50.916;2.926;2024-01-30T04:38:40;9.60;;;7.90;;
46318;SDS011;32042;50.916;2.926;2024-01-30T04:41:07;9.50;;;8.37;;
46318;SDS011;32042;50.916;2.926;2024-01-30T04:43:33;8.90;;;8.00;;
46318;SDS011;32042;50.916;2.926;2024-01-30T04:45:59;9.60;;;7.60;;
46318;SDS011;32042;50.916;2.926;2024-01-30T04:48:25;9.87;;;8.37;;
46318;SDS011;32042;50.916;2.926;2024-01-30T04:50:51;8.40;;;7.40;;
46318;SDS011;32042;50.916;2.926;2024-01-30T04:53:17;10.80;;;8.47;;
46318;SDS011;32042;50.916;2.926;2024-01-30T04:55:44;9.13;;;8.07;;
46318;SDS011;32042;50.916;2.926;2024-01-30T04:58:10;12.60;;;8.50;;
46318;SDS011;32042;50.916;2.926;2024-01-30T05:00:36;11.77;;;8.13;;
46318;SDS011;32042;50.916;2.926;2024-01-30T05:03:02;9.00;;;7.70;;
46318;SDS011;32042;50.916;2.926;2024-01-30T05:05:29;13.73;;;8.10;;
46318;SDS011;32042;50.916;2.926;2024-01-30T05:07:56;8.87;;;7.97;;
46318;SDS011;32042;50.916;2.926;2024-01-30T05:10:22;11.20;;;8.43;;
46318;SDS011;32042;50.916;2.926;2024-01-30T05:12:48;10.07;;;7.63;;
46318;SDS011;32042;50.916;2.926;2024-01-30T05:15:14;15.67;;;8.87;;
46318;SDS011;32042;50.916;2.926;2024-01-30T05:17:40;13.33;;;9.27;;
46318;SDS011;32042;50.916;2.926;2024-01-30T05:20:06;12.00;;;8.90;;
46318;SDS011;32042;50.916;2.926;2024-01-30T05:22:32;12.10;;;9.20;;
46318;SDS011;32042;50.916;2.926;2024-01-30T05:24:58;12.83;;;8.73;;
46318;SDS011;32042;50.916;2.926;2024-01-30T05:27:24;14.53;;;9.27;;
46318;SDS011;32042;50.916;2.926;2024-01-30T05:29:50;11.00;;;8.47;;
46318;SDS011;32042;50.916;2.926;2024-01-30T05:32:17;9.07;;;8.17;;
46318;SDS011;32042;50.916;2.926;2024-01-30T05:34:43;10.07;;;8.27;;
46318;SDS011;32042;50.916;2.926;2024-01-30T05:37:09;10.30;;;8.40;;
46318;SDS011;32042;50.916;2.926;2024-01-30T05:39:39;12.07;;;8.63;;
46318;SDS011;32042;50.916;2.926;2024-01-30T05:42:05;12.77;;;8.93;;
46318;SDS011;32042;50.916;2.926;2024-01-30T05:44:31;12.80;;;8.10;;
46318;SDS011;32042;50.916;2.926;2024-01-30T05:46:57;10.57;;;7.47;;
46318;SDS011;32042;50.916;2.926;2024-01-30T05:49:23;13.70;;;8.37;;
46318;SDS011;32042;50.916;2.926;2024-01-30T05:51:49;12.00;;;8.60;;
46318;SDS011;32042;50.916;2.926;2024-01-30T05:54:15;10.17;;;8.17;;
46318;SDS011;32042;50.916;2.926;2024-01-30T05:56:41;11.47;;;8.77;;
46318;SDS011;32042;50.916;2.926;2024-01-30T05:59:07;11.30;;;8.27;;
46318;SDS011;32042;50.916;2.926;2024-01-30T06:01:33;8.43;;;7.70;;
46318;SDS011;32042;50.916;2.926;2024-01-30T06:03:59;9.80;;;8.40;;
46318;SDS011;32042;50.916;2.926;2024-01-30T06:06:27;9.70;;;8.23;;
46318;SDS011;32042;50.916;2.926;2024-01-30T06:08:54;13.47;;;8.33;;
46318;SDS011;32042;50.916;2.926;2024-01-30T06:11:21;14.57;;;8.27;;
46318;SDS011;32042;50.916;2.926;2024-01-30T06:13:47;11.47;;;8.87;;
46318;SDS011;32042;50.916;2.926;2024-01-30T06:16:13;12.37;;;8.73;;
46318;SDS011;32042;50.916;2.926;2024-01-30T06:18:39;10.43;;;8.37;;
46318;SDS011;32042;50.916;2.926;2024-01-30T06:21:05;11.00;;;8.30;;
46318;SDS011;32042;50.916;2.926;2024-01-30T06:23:31;11.37;;;8.77;;
46318;SDS011;32042;50.916;2.926;2024-01-30T06:25:57;9.93;;;7.67;;
46318;SDS011;32042;50.916;2.926;2024-01-30T06:28:24;13.57;;;8.27;;
46318;SDS011;32042;50.916;2.926;2024-01-30T06:30:50;13.00;;;7.70;;
46318;SDS011;32042;50.916;2.926;2024-01-30T06:33:16;8.93;;;7.60;;
46318;SDS011;32042;50.916;2.926;2024-01-30T06:35:42;12.77;;;7.40;;
46318;SDS011;32042;50.916;2.926;2024-01-30T06:38:08;10.97;;;7.80;;
46318;SDS011;32042;50.916;2.926;2024-01-30T06:40:35;9.47;;;7.10;;
46318;SDS011;32042;50.916;2.926;2024-01-30T06:43:01;9.27;;;7.60;;
46318;SDS011;32042;50.916;2.926;2024-01-30T06:45:27;9.90;;;7.37;;
46318;SDS011;32042;50.916;2.926;2024-01-30T06:47:53;9.53;;;7.53;;
46318;SDS011;32042;50.916;2.926;2024-01-30T06:50:20;9.57;;;8.10;;
46318;SDS011;32042;50.916;2.926;2024-01-30T06:52:46;12.37;;;7.93;;
46318;SDS011;32042;50.916;2.926;2024-01-30T06:55:12;14.43;;;7.50;;
46318;SDS011;32042;50.916;2.926;2024-01-30T06:57:38;9.43;;;6.77;;
46318;SDS011;32042;50.916;2.926;2024-01-30T07:00:04;11.60;;;6.60;;
46318;SDS011;32042;50.916;2.926;2024-01-30T07:02:31;9.27;;;5.30;;
46318;SDS011;32042;50.916;2.926;2024-01-30T07:04:57;12.30;;;6.83;;
46318;SDS011;32042;50.916;2.926;2024-01-30T07:07:23;7.23;;;5.67;;
46318;SDS011;32042;50.916;2.926;2024-01-30T07:09:49;14.87;;;6.33;;
46318;SDS011;32042;50.916;2.926;2024-01-30T07:12:20;12.73;;;6.23;;
46318;SDS011;32042;50.916;2.926;2024-01-30T07:14:46;11.67;;;6.00;;
46318;SDS011;32042;50.916;2.926;2024-01-30T07:17:13;8.60;;;4.80;;
46318;SDS011;32042;50.916;2.926;2024-01-30T07:19:39;9.70;;;5.30;;
46318;SDS011;32042;50.916;2.926;2024-01-30T07:22:05;11.17;;;4.97;;
46318;SDS011;32042;50.916;2.926;2024-01-30T07:24:31;9.83;;;5.40;;
46318;SDS011;32042;50.916;2.926;2024-01-30T07:26:58;8.67;;;5.13;;
46318;SDS011;32042;50.916;2.926;2024-01-30T07:29:24;6.60;;;4.93;;
46318;SDS011;32042;50.916;2.926;2024-01-30T07:31:50;9.00;;;4.47;;
46318;SDS011;32042;50.916;2.926;2024-01-30T07:34:16;7.37;;;4.97;;
46318;SDS011;32042;50.916;2.926;2024-01-30T07:36:42;7.30;;;3.93;;
46318;SDS011;32042;50.916;2.926;2024-01-30T07:39:08;10.30;;;3.60;;
46318;SDS011;32042;50.916;2.926;2024-01-30T07:41:35;6.73;;;2.90;;
46318;SDS011;32042;50.916;2.926;2024-01-30T07:44:02;8.40;;;2.60;;
46318;SDS011;32042;50.916;2.926;2024-01-30T07:46:28;4.07;;;3.23;;
46318;SDS011;32042;50.916;2.926;2024-01-30T07:48:54;7.13;;;2.40;;
46318;SDS011;32042;50.916;2.926;2024-01-30T07:51:22;3.10;;;2.30;;
46318;SDS011;32042;50.916;2.926;2024-01-30T07:53:48;6.10;;;2.33;;
46318;SDS011;32042;50.916;2.926;2024-01-30T07:56:14;4.90;;;1.90;;
46318;SDS011;32042;50.916;2.926;2024-01-30T07:58:41;9.17;;;2.57;;
46318;SDS011;32042;50.916;2.926;2024-01-30T08:01:07;4.77;;;1.80;;
46318;SDS011;32042;50.916;2.926;2024-01-30T08:03:33;3.37;;;1.30;;
46318;SDS011;32042;50.916;2.926;2024-01-30T08:06:00;7.27;;;1.30;;
46318;SDS011;32042;50.916;2.926;2024-01-30T08:08:26;6.67;;;1.50;;
46318;SDS011;32042;50.916;2.926;2024-01-30T08:10:53;6.13;;;2.60;;
46318;SDS011;32042;50.916;2.926;2024-01-30T08:13:19;4.17;;;1.47;;
46318;SDS011;32042;50.916;2.926;2024-01-30T08:15:46;5.67;;;1.70;;
46318;SDS011;32042;50.916;2.926;2024-01-30T08:18:12;5.87;;;1.50;;
46318;SDS011;32042;50.916;2.926;2024-01-30T08:20:38;4.80;;;1.27;;
46318;SDS011;32042;50.916;2.926;2024-01-30T08:23:04;6.90;;;1.40;;
46318;SDS011;32042;50.916;2.926;2024-01-30T08:25:30;5.03;;;1.20;;
46318;SDS011;32042;50.916;2.926;2024-01-30T08:27:56;5.93;;;1.37;;
46318;SDS011;32042;50.916;2.926;2024-01-30T08:30:23;2.40;;;1.33;;
46318;SDS011;32042;50.916;2.926;2024-01-30T08:32:49;5.67;;;1.47;;
46318;SDS011;32042;50.916;2.926;2024-01-30T08:35:15;3.93;;;1.93;;
46318;SDS011;32042;50.916;2.926;2024-01-30T08:37:41;3.07;;;0.87;;
46318;SDS011;32042;50.916;2.926;2024-01-30T08:40:07;8.33;;;1.67;;
46318;SDS011;32042;50.916;2.926;2024-01-30T08:42:34;7.53;;;1.20;;
46318;SDS011;32042;50.916;2.926;2024-01-30T08:45:00;3.17;;;1.17;;
46318;SDS011;32042;50.916;2.926;2024-01-30T08:47:26;2.97;;;1.17;;
46318;SDS011;32042;50.916;2.926;2024-01-30T08:49:52;4.97;;;1.10;;
46318;SDS011;32042;50.916;2.926;2024-01-30T08:52:18;8.30;;;1.57;;
46318;SDS011;32042;50.916;2.926;2024-01-30T08:54:44;4.60;;;0.90;;
46318;SDS011;32042;50.916;2.926;2024-01-30T08:57:10;4.17;;;0.90;;
46318;SDS011;32042;50.916;2.926;2024-01-30T08:59:36;3.70;;;0.73;;
46318;SDS011;32042;50.916;2.926;2024-01-30T09:02:02;2.27;;;0.60;;
46318;SDS011;32042;50.916;2.926;2024-01-30T09:04:29;2.50;;;0.37;;
46318;SDS011;32042;50.916;2.926;2024-01-30T09:06:56;1.00;;;0.40;;
46318;SDS011;32042;50.916;2.926;2024-01-30T09:09:22;4.47;;;0.83;;
46318;SDS011;32042;50.916;2.926;2024-01-30T09:11:49;3.70;;;0.70;;
46318;SDS011;32042;50.916;2.926;2024-01-30T09:14:15;1.77;;;0.67;;
46318;SDS011;32042;50.916;2.926;2024-01-30T09:16:41;3.70;;;0.80;;
46318;SDS011;32042;50.916;2.926;2024-01-30T09:19:07;1.77;;;0.70;;
46318;SDS011;32042;50.916;2.926;2024-01-30T09:21:33;1.03;;;0.67;;
46318;SDS011;32042;50.916;2.926;2024-01-30T09:24:02;2.63;;;0.70;;
46318;SDS011;32042;50.916;2.926;2024-01-30T09:26:32;3.03;;;0.70;;
46318;SDS011;32042;50.916;2.926;2024-01-30T09:28:58;3.40;;;0.70;;
46318;SDS011;32042;50.916;2.926;2024-01-30T09:31:24;1.93;;;0.50;;
46318;SDS011;32042;50.916;2.926;2024-01-30T09:33:50;4.87;;;0.97;;
46318;SDS011;32042;50.916;2.926;2024-01-30T09:36:18;1.60;;;0.83;;
46318;SDS011;32042;50.916;2.926;2024-01-30T09:38:45;1.03;;;0.60;;
46318;SDS011;32042;50.916;2.926;2024-01-30T09:41:11;3.30;;;0.70;;
46318;SDS011;32042;50.916;2.926;2024-01-30T09:43:38;1.90;;;0.70;;
46318;SDS011;32042;50.916;2.926;2024-01-30T09:46:08;3.40;;;0.80;;
46318;SDS011;32042;50.916;2.926;2024-01-30T09:48:37;2.03;;;0.93;;
46318;SDS011;32042;50.916;2.926;2024-01-30T09:51:03;6.27;;;0.70;;
46318;SDS011;32042;50.916;2.926;2024-01-30T09:53:30;1.90;;;0.70;;
46318;SDS011;32042;50.916;2.926;2024-01-30T09:55:56;2.83;;;0.83;;
46318;SDS011;32042;50.916;2.926;2024-01-30T09:58:23;2.13;;;0.67;;
46318;SDS011;32042;50.916;2.926;2024-01-30T10:00:49;4.40;;;0.83;;
46318;SDS011;32042;50.916;2.926;2024-01-30T10:03:15;2.20;;;0.77;;
46318;SDS011;32042;50.916;2.926;2024-01-30T10:05:42;3.90;;;1.10;;
46318;SDS011;32042;50.916;2.926;2024-01-30T10:08:11;3.83;;;0.80;;
46318;SDS011;32042;50.916;2.926;2024-01-30T10:10:37;4.63;;;3.23;;
46318;SDS011;32042;50.916;2.926;2024-01-30T10:13:03;2.70;;;1.00;;
46318;SDS011;32042;50.916;2.926;2024-01-30T10:15:29;5.63;;;0.93;;
46318;SDS011;32042;50.916;2.926;2024-01-30T10:17:55;3.03;;;0.90;;
46318;SDS011;32042;50.916;2.926;2024-01-30T10:20:21;3.83;;;1.10;;
46318;SDS011;32042;50.916;2.926;2024-01-30T10:22:48;4.97;;;0.97;;
46318;SDS011;32042;50.916;2.926;2024-01-30T10:25:14;6.17;;;1.00;;
46318;SDS011;32042;50.916;2.926;2024-01-30T10:27:41;2.83;;;0.67;;
46318;SDS011;32042;50.916;2.926;2024-01-30T10:30:08;6.70;;;1.63;;
46318;SDS011;32042;50.916;2.926;2024-01-30T10:32:34;5.10;;;1.30;;
46318;SDS011;32042;50.916;2.926;2024-01-30T10:35:01;2.57;;;1.03;;
46318;SDS011;32042;50.916;2.926;2024-01-30T10:37:27;6.40;;;1.47;;
46318;SDS011;32042;50.916;2.926;2024-01-30T10:39:56;4.50;;;0.80;;
46318;SDS011;32042;50.916;2.926;2024-01-30T10:42:27;5.47;;;0.90;;
46318;SDS011;32042;50.916;2.926;2024-01-30T10:45:06;4.07;;;1.47;;
46318;SDS011;32042;50.916;2.926;2024-01-30T10:47:37;2.77;;;0.73;;
46318;SDS011;32042;50.916;2.926;2024-01-30T10:50:05;5.23;;;0.50;;
46318;SDS011;32042;50.916;2.926;2024-01-30T10:52:32;0.83;;;0.30;;
46318;SDS011;32042;50.916;2.926;2024-01-30T10:54:59;4.00;;;0.50;;
46318;SDS011;32042;50.916;2.926;2024-01-30T10:57:26;5.33;;;0.50;;
46318;SDS011;32042;50.916;2.926;2024-01-30T10:59:56;4.73;;;0.80;;
46318;SDS011;32042;50.916;2.926;2024-01-30T11:02:23;1.93;;;0.50;;
46318;SDS011;32042;50.916;2.926;2024-01-30T11:04:49;2.13;;;0.40;;
46318;SDS011;32042;50.916;2.926;2024-01-30T11:07:16;2.57;;;0.70;;
46318;SDS011;32042;50.916;2.926;2024-01-30T11:09:53;0.63;;;0.30;;
46318;SDS011;32042;50.916;2.926;2024-01-30T11:12:23;0.20;;;0.10;;
46318;SDS011;32042;50.916;2.926;2024-01-30T11:14:50;1.87;;;0.53;;
46318;SDS011;32042;50.916;2.926;2024-01-30T11:17:16;0.57;;;0.30;;
46318;SDS011;32042;50.916;2.926;2024-01-30T11:19:42;1.27;;;0.57;;
46318;SDS011;32042;50.916;2.926;2024-01-30T11:22:08;0.20;;;0.20;;
46318;SDS011;32042;50.916;2.926;2024-01-30T11:24:41;1.63;;;0.30;;
46318;SDS011;32042;50.916;2.926;2024-01-30T11:27:10;1.17;;;0.27;;
46318;SDS011;32042;50.916;2.926;2024-01-30T11:29:36;3.13;;;0.80;;
46318;SDS011;32042;50.916;2.926;2024-01-30T11:32:02;2.63;;;1.10;;
46318;SDS011;32042;50.916;2.926;2024-01-30T11:34:28;4.63;;;0.80;;
46318;SDS011;32042;50.916;2.926;2024-01-30T11:37:03;1.80;;;0.73;;
46318;SDS011;32042;50.916;2.926;2024-01-30T11:39:32;2.97;;;1.27;;
46318;SDS011;32042;50.916;2.926;2024-01-30T11:41:58;8.70;;;3.07;;
46318;SDS011;32042;50.916;2.926;2024-01-30T11:44:24;7.67;;;3.80;;
46318;SDS011;32042;50.916;2.926;2024-01-30T11:46:51;3.10;;;1.43;;
46318;SDS011;32042;50.916;2.926;2024-01-30T11:49:17;3.50;;;0.70;;
46318;SDS011;32042;50.916;2.926;2024-01-30T11:51:47;1.60;;;1.37;;
46318;SDS011;32042;50.916;2.926;2024-01-30T11:54:14;0.80;;;0.40;;
46318;SDS011;32042;50.916;2.926;2024-01-30T11:56:41;1.23;;;0.70;;
46318;SDS011;32042;50.916;2.926;2024-01-30T11:59:08;3.83;;;0.70;;
46318;SDS011;32042;50.916;2.926;2024-01-30T12:01:34;1.83;;;0.57;;
46318;SDS011;32042;50.916;2.926;2024-01-30T12:04:01;2.33;;;0.83;;
46318;SDS011;32042;50.916;2.926;2024-01-30T12:06:28;2.73;;;0.60;;
46318;SDS011;32042;50.916;2.926;2024-01-30T12:09:02;5.53;;;1.03;;
46318;SDS011;32042;50.916;2.926;2024-01-30T12:11:45;2.03;;;0.80;;
46318;SDS011;32042;50.916;2.926;2024-01-30T12:14:11;3.57;;;0.87;;
46318;SDS011;32042;50.916;2.926;2024-01-30T12:16:37;1.60;;;0.40;;
46318;SDS011;32042;50.916;2.926;2024-01-30T12:19:03;2.50;;;0.70;;
46318;SDS011;32042;50.916;2.926;2024-01-30T12:21:29;3.53;;;0.90;;
46318;SDS011;32042;50.916;2.926;2024-01-30T12:23:59;2.60;;;0.67;;
46318;SDS011;32042;50.916;2.926;2024-01-30T12:26:25;1.80;;;0.80;;
46318;SDS011;32042;50.916;2.926;2024-01-30T12:28:54;4.63;;;0.77;;
46318;SDS011;32042;50.916;2.926;2024-01-30T12:31:26;6.03;;;1.00;;
46318;SDS011;32042;50.916;2.926;2024-01-30T12:33:53;4.47;;;1.60;;
46318;SDS011;32042;50.916;2.926;2024-01-30T12:36:19;6.97;;;1.10;;
46318;SDS011;32042;50.916;2.926;2024-01-30T12:38:45;4.87;;;1.13;;
46318;SDS011;32042;50.916;2.926;2024-01-30T12:41:11;3.27;;;1.03;;
46318;SDS011;32042;50.916;2.926;2024-01-30T12:43:37;3.13;;;1.60;;
46318;SDS011;32042;50.916;2.926;2024-01-30T12:46:03;2.20;;;1.03;;
46318;SDS011;32042;50.916;2.926;2024-01-30T12:48:29;9.17;;;2.03;;
46318;SDS011;32042;50.916;2.926;2024-01-30T12:50:56;5.80;;;2.17;;
46318;SDS011;32042;50.916;2.926;2024-01-30T12:53:22;4.73;;;1.07;;
46318;SDS011;32042;50.916;2.926;2024-01-30T12:55:48;4.60;;;0.83;;
46318;SDS011;32042;50.916;2.926;2024-01-30T12:58:15;1.60;;;0.57;;
46318;SDS011;32042;50.916;2.926;2024-01-30T13:00:41;9.50;;;1.03;;
46318;SDS011;32042;50.916;2.926;2024-01-30T13:03:08;5.80;;;1.60;;
46318;SDS011;32042;50.916;2.926;2024-01-30T13:05:35;3.37;;;1.10;;
46318;SDS011;32042;50.916;2.926;2024-01-30T13:08:02;5.20;;;1.20;;
46318;SDS011;32042;50.916;2.926;2024-01-30T13:10:28;4.23;;;1.00;;
46318;SDS011;32042;50.916;2.926;2024-01-30T13:12:54;6.03;;;1.60;;
46318;SDS011;32042;50.916;2.926;2024-01-30T13:15:20;6.27;;;1.70;;
46318;SDS011;32042;50.916;2.926;2024-01-30T13:17:48;3.07;;;1.40;;
46318;SDS011;32042;50.916;2.926;2024-01-30T13:20:14;7.43;;;1.50;;
46318;SDS011;32042;50.916;2.926;2024-01-30T13:22:47;5.07;;;1.97;;
46318;SDS011;32042;50.916;2.926;2024-01-30T13:25:14;5.17;;;1.00;;
46318;SDS011;32042;50.916;2.926;2024-01-30T13:27:41;4.93;;;1.83;;
46318;SDS011;32042;50.916;2.926;2024-01-30T13:30:07;4.90;;;1.20;;
46318;SDS011;32042;50.916;2.926;2024-01-30T13:32:34;3.20;;;1.10;;
46318;SDS011;32042;50.916;2.926;2024-01-30T13:35:01;3.23;;;0.47;;
46318;SDS011;32042;50.916;2.926;2024-01-30T13:37:27;2.87;;;1.27;;
46318;SDS011;32042;50.916;2.926;2024-01-30T13:39:53;9.27;;;2.10;;
46318;SDS011;32042;50.916;2.926;2024-01-30T13:42:19;4.10;;;1.63;;
46318;SDS011;32042;50.916;2.926;2024-01-30T13:44:45;14.23;;;6.03;;
46318;SDS011;32042;50.916;2.926;2024-01-30T13:47:11;21.30;;;8.20;;
46318;SDS011;32042;50.916;2.926;2024-01-30T13:49:37;3.90;;;2.17;;
46318;SDS011;32042;50.916;2.926;2024-01-30T13:52:03;2.37;;;1.80;;
46318;SDS011;32042;50.916;2.926;2024-01-30T13:54:30;4.03;;;1.70;;
46318;SDS011;32042;50.916;2.926;2024-01-30T13:56:56;3.97;;;1.53;;
46318;SDS011;32042;50.916;2.926;2024-01-30T13:59:22;4.60;;;2.23;;
46318;SDS011;32042;50.916;2.926;2024-01-30T14:01:50;4.00;;;1.67;;
46318;SDS011;32042;50.916;2.926;2024-01-30T14:04:17;5.53;;;2.30;;
46318;SDS011;32042;50.916;2.926;2024-01-30T14:06:43;5.03;;;2.20;;
46318;SDS011;32042;50.916;2.926;2024-01-30T14:09:10;5.03;;;2.17;;
46318;SDS011;32042;50.916;2.926;2024-01-30T14:11:36;6.50;;;2.30;;
46318;SDS011;32042;50.916;2.926;2024-01-30T14:14:02;5.87;;;2.50;;
46318;SDS011;32042;50.916;2.926;2024-01-30T14:16:28;6.97;;;2.87;;
46318;SDS011;32042;50.916;2.926;2024-01-30T14:18:54;5.67;;;2.03;;
46318;SDS011;32042;50.916;2.926;2024-01-30T14:21:20;3.43;;;1.97;;
46318;SDS011;32042;50.916;2.926;2024-01-30T14:23:46;6.47;;;1.83;;
46318;SDS011;32042;50.916;2.926;2024-01-30T14:26:12;5.83;;;2.27;;
46318;SDS011;32042;50.916;2.926;2024-01-30T14:28:38;4.17;;;2.07;;
46318;SDS011;32042;50.916;2.926;2024-01-30T14:31:04;4.60;;;2.40;;
46318;SDS011;32042;50.916;2.926;2024-01-30T14:33:30;5.20;;;2.13;;
46318;SDS011;32042;50.916;2.926;2024-01-30T14:35:57;7.37;;;1.77;;
46318;SDS011;32042;50.916;2.926;2024-01-30T14:38:23;8.80;;;3.37;;
46318;SDS011;32042;50.916;2.926;2024-01-30T14:40:50;4.50;;;2.10;;